sensor_id;sensor_type;location;lat;lon;timestamp;temperature;humidity
3053;DHT22;1536;51.098;6.414;2023-06-14T00:01:52;20.70;68.50
3053;DHT22;1536;51.098;6.414;2023-06-14T00:04:19;20.60;68.50
3053;DHT22;1536;51.098;6.414;2023-06-14T00:06:46;20.60;68.60
3053;DHT22;1536;51.098;6.414;2023-06-14T00:09:13;20.50;68.40
3053;DHT22;1536;51.098;6.414;2023-06-14T00:11:42;20.50;68.40
3053;DHT22;1536;51.098;6.414;2023-06-14T00:14:10;20.50;68.70
3053;DHT22;1536;51.098;6.414;2023-06-14T00:16:37;20.40;69.00
3053;DHT22;1536;51.098;6.414;2023-06-14T00:19:04;20.40;69.20
3053;DHT22;1536;51.098;6.414;2023-06-14T00:21:31;20.30;69.00
3053;DHT22;1536;51.098;6.414;2023-06-14T00:23:58;20.20;69.30
3053;DHT22;1536;51.098;6.414;2023-06-14T00:26:25;20.20;69.40
3053;DHT22;1536;51.098;6.414;2023-06-14T00:28:52;20.20;69.70
3053;DHT22;1536;51.098;6.414;2023-06-14T00:31:20;20.20;69.80
3053;DHT22;1536;51.098;6.414;2023-06-14T00:33:46;20.20;70.20
3053;DHT22;1536;51.098;6.414;2023-06-14T00:36:13;20.20;70.80
3053;DHT22;1536;51.098;6.414;2023-06-14T00:38:40;20.10;71.40
3053;DHT22;1536;51.098;6.414;2023-06-14T00:41:07;20.10;72.00
3053;DHT22;1536;51.098;6.414;2023-06-14T00:43:33;20.00;72.50
3053;DHT22;1536;51.098;6.414;2023-06-14T00:46:01;19.90;72.80
3053;DHT22;1536;51.098;6.414;2023-06-14T00:48:29;19.90;73.00
3053;DHT22;1536;51.098;6.414;2023-06-14T00:50:57;19.80;72.60
3053;DHT22;1536;51.098;6.414;2023-06-14T00:53:28;19.80;72.40
3053;DHT22;1536;51.098;6.414;2023-06-14T00:55:55;19.70;72.50
3053;DHT22;1536;51.098;6.414;2023-06-14T00:58:22;19.60;72.70
3053;DHT22;1536;51.098;6.414;2023-06-14T01:00:49;19.60;72.80
3053;DHT22;1536;51.098;6.414;2023-06-14T01:03:16;19.50;73.40
3053;DHT22;1536;51.098;6.414;2023-06-14T01:05:49;19.50;73.80
3053;DHT22;1536;51.098;6.414;2023-06-14T01:08:24;19.40;74.10
3053;DHT22;1536;51.098;6.414;2023-06-14T01:11:02;19.40;74.30
3053;DHT22;1536;51.098;6.414;2023-06-14T01:13:33;19.30;74.50
3053;DHT22;1536;51.098;6.414;2023-06-14T01:16:01;19.30;75.00
3053;DHT22;1536;51.098;6.414;2023-06-14T01:18:28;19.20;75.70
3053;DHT22;1536;51.098;6.414;2023-06-14T01:20:57;19.20;75.20
3053;DHT22;1536;51.098;6.414;2023-06-14T01:23:25;19.20;75.20
3053;DHT22;1536;51.098;6.414;2023-06-14T01:25:58;19.10;75.30
3053;DHT22;1536;51.098;6.414;2023-06-14T01:28:29;19.10;75.60
3053;DHT22;1536;51.098;6.414;2023-06-14T01:31:00;19.00;76.60
3053;DHT22;1536;51.098;6.414;2023-06-14T01:33:30;19.00;75.70
3053;DHT22;1536;51.098;6.414;2023-06-14T01:35:58;18.90;75.80
3053;DHT22;1536;51.098;6.414;2023-06-14T01:38:27;18.90;75.90
3053;DHT22;1536;51.098;6.414;2023-06-14T01:40:57;18.90;76.70
3053;DHT22;1536;51.098;6.414;2023-06-14T01:43:25;18.90;76.50
3053;DHT22;1536;51.098;6.414;2023-06-14T01:45:53;18.90;76.30
3053;DHT22;1536;51.098;6.414;2023-06-14T01:48:21;18.90;76.00
3053;DHT22;1536;51.098;6.414;2023-06-14T01:50:48;19.00;76.00
3053;DHT22;1536;51.098;6.414;2023-06-14T01:53:17;19.00;76.00
3053;DHT22;1536;51.098;6.414;2023-06-14T01:55:46;19.00;76.00
3053;DHT22;1536;51.098;6.414;2023-06-14T01:58:14;19.10;76.10
3053;DHT22;1536;51.098;6.414;2023-06-14T02:00:42;19.10;75.80
3053;DHT22;1536;51.098;6.414;2023-06-14T02:03:10;19.10;75.40
3053;DHT22;1536;51.098;6.414;2023-06-14T02:05:38;19.20;75.10
3053;DHT22;1536;51.098;6.414;2023-06-14T02:08:05;19.20;74.80
3053;DHT22;1536;51.098;6.414;2023-06-14T02:10:32;19.20;74.40
3053;DHT22;1536;51.098;6.414;2023-06-14T02:13:01;19.30;74.50
3053;DHT22;1536;51.098;6.414;2023-06-14T02:15:28;19.30;74.10
3053;DHT22;1536;51.098;6.414;2023-06-14T02:17:59;19.40;73.80
3053;DHT22;1536;51.098;6.414;2023-06-14T02:20:26;19.40;73.60
3053;DHT22;1536;51.098;6.414;2023-06-14T02:22:53;19.40;73.40
3053;DHT22;1536;51.098;6.414;2023-06-14T02:25:20;19.40;73.20
3053;DHT22;1536;51.098;6.414;2023-06-14T02:27:46;19.50;72.90
3053;DHT22;1536;51.098;6.414;2023-06-14T02:30:15;19.50;72.60
3053;DHT22;1536;51.098;6.414;2023-06-14T02:32:42;19.50;72.40
3053;DHT22;1536;51.098;6.414;2023-06-14T02:35:09;19.50;72.20
3053;DHT22;1536;51.098;6.414;2023-06-14T02:37:36;19.50;72.00
3053;DHT22;1536;51.098;6.414;2023-06-14T02:40:04;19.60;72.70
3053;DHT22;1536;51.098;6.414;2023-06-14T02:42:31;19.60;71.60
3053;DHT22;1536;51.098;6.414;2023-06-14T02:44:58;19.60;71.50
3053;DHT22;1536;51.098;6.414;2023-06-14T02:47:26;19.60;71.50
3053;DHT22;1536;51.098;6.414;2023-06-14T02:49:52;19.60;71.50
3053;DHT22;1536;51.098;6.414;2023-06-14T02:52:19;19.60;71.40
3053;DHT22;1536;51.098;6.414;2023-06-14T02:54:47;19.60;71.20
3053;DHT22;1536;51.098;6.414;2023-06-14T02:57:14;19.60;71.20
3053;DHT22;1536;51.098;6.414;2023-06-14T02:59:41;19.60;71.10
3053;DHT22;1536;51.098;6.414;2023-06-14T03:02:07;19.60;70.90
3053;DHT22;1536;51.098;6.414;2023-06-14T03:04:35;19.50;70.90
3053;DHT22;1536;51.098;6.414;2023-06-14T03:07:04;19.50;70.90
3053;DHT22;1536;51.098;6.414;2023-06-14T03:09:35;19.50;71.00
3053;DHT22;1536;51.098;6.414;2023-06-14T03:12:02;19.50;71.10
3053;DHT22;1536;51.098;6.414;2023-06-14T03:14:30;19.50;71.10
3053;DHT22;1536;51.098;6.414;2023-06-14T03:16:57;19.50;71.00
3053;DHT22;1536;51.098;6.414;2023-06-14T03:19:24;19.50;71.30
3053;DHT22;1536;51.098;6.414;2023-06-14T03:21:52;19.50;71.20
3053;DHT22;1536;51.098;6.414;2023-06-14T03:24:22;19.50;71.20
3053;DHT22;1536;51.098;6.414;2023-06-14T03:26:49;19.50;71.50
3053;DHT22;1536;51.098;6.414;2023-06-14T03:29:16;19.50;72.00
3053;DHT22;1536;51.098;6.414;2023-06-14T03:31:56;19.50;72.80
3053;DHT22;1536;51.098;6.414;2023-06-14T03:34:24;19.40;73.40
3053;DHT22;1536;51.098;6.414;2023-06-14T03:36:52;19.40;73.40
3053;DHT22;1536;51.098;6.414;2023-06-14T03:39:19;19.20;73.50
3053;DHT22;1536;51.098;6.414;2023-06-14T03:41:46;19.20;73.90
3053;DHT22;1536;51.098;6.414;2023-06-14T03:44:15;19.10;74.10
3053;DHT22;1536;51.098;6.414;2023-06-14T03:46:44;19.00;74.40
3053;DHT22;1536;51.098;6.414;2023-06-14T03:49:11;18.90;74.70
3053;DHT22;1536;51.098;6.414;2023-06-14T03:51:38;18.90;75.00
3053;DHT22;1536;51.098;6.414;2023-06-14T03:54:06;18.80;75.30
3053;DHT22;1536;51.098;6.414;2023-06-14T03:56:33;18.80;75.70
3053;DHT22;1536;51.098;6.414;2023-06-14T03:59:00;18.70;76.00
3053;DHT22;1536;51.098;6.414;2023-06-14T04:01:27;18.70;76.30
3053;DHT22;1536;51.098;6.414;2023-06-14T04:03:55;18.70;76.50
3053;DHT22;1536;51.098;6.414;2023-06-14T04:06:23;18.70;76.60
3053;DHT22;1536;51.098;6.414;2023-06-14T04:08:50;18.70;76.20
3053;DHT22;1536;51.098;6.414;2023-06-14T04:11:19;18.70;76.00
3053;DHT22;1536;51.098;6.414;2023-06-14T04:13:45;18.80;76.00
3053;DHT22;1536;51.098;6.414;2023-06-14T04:16:12;18.80;75.50
3053;DHT22;1536;51.098;6.414;2023-06-14T04:18:41;18.80;75.50
3053;DHT22;1536;51.098;6.414;2023-06-14T04:21:07;18.90;75.50
3053;DHT22;1536;51.098;6.414;2023-06-14T04:23:34;18.90;75.60
3053;DHT22;1536;51.098;6.414;2023-06-14T04:26:01;19.00;75.70
3053;DHT22;1536;51.098;6.414;2023-06-14T04:28:29;19.00;75.40
3053;DHT22;1536;51.098;6.414;2023-06-14T04:30:56;19.00;75.60
3053;DHT22;1536;51.098;6.414;2023-06-14T04:33:23;19.10;75.70
3053;DHT22;1536;51.098;6.414;2023-06-14T04:35:51;19.10;75.60
3053;DHT22;1536;51.098;6.414;2023-06-14T04:38:19;19.10;75.90
3053;DHT22;1536;51.098;6.414;2023-06-14T04:40:49;19.20;75.70
3053;DHT22;1536;51.098;6.414;2023-06-14T04:43:18;19.20;75.60
3053;DHT22;1536;51.098;6.414;2023-06-14T04:45:54;19.30;76.50
3053;DHT22;1536;51.098;6.414;2023-06-14T04:48:21;19.30;77.00
3053;DHT22;1536;51.098;6.414;2023-06-14T04:50:48;19.30;76.90
3053;DHT22;1536;51.098;6.414;2023-06-14T04:53:18;19.40;76.90
3053;DHT22;1536;51.098;6.414;2023-06-14T04:55:47;19.40;77.10
3053;DHT22;1536;51.098;6.414;2023-06-14T04:58:13;19.40;77.40
3053;DHT22;1536;51.098;6.414;2023-06-14T05:00:40;19.50;77.70
3053;DHT22;1536;51.098;6.414;2023-06-14T05:03:10;19.50;77.80
3053;DHT22;1536;51.098;6.414;2023-06-14T05:05:39;19.60;77.80
3053;DHT22;1536;51.098;6.414;2023-06-14T05:08:06;19.60;77.40
3053;DHT22;1536;51.098;6.414;2023-06-14T05:10:32;19.70;78.10
3053;DHT22;1536;51.098;6.414;2023-06-14T05:13:00;19.70;77.10
3053;DHT22;1536;51.098;6.414;2023-06-14T05:15:27;19.70;77.30
3053;DHT22;1536;51.098;6.414;2023-06-14T05:17:54;19.80;77.20
3053;DHT22;1536;51.098;6.414;2023-06-14T05:20:23;19.80;77.10
3053;DHT22;1536;51.098;6.414;2023-06-14T05:22:52;19.90;76.80
3053;DHT22;1536;51.098;6.414;2023-06-14T05:25:19;19.90;76.60
3053;DHT22;1536;51.098;6.414;2023-06-14T05:27:46;20.00;76.70
3053;DHT22;1536;51.098;6.414;2023-06-14T05:30:14;20.10;77.00
3053;DHT22;1536;51.098;6.414;2023-06-14T05:32:41;20.10;77.00
3053;DHT22;1536;51.098;6.414;2023-06-14T05:35:08;20.20;77.20
3053;DHT22;1536;51.098;6.414;2023-06-14T05:37:37;20.30;77.10
3053;DHT22;1536;51.098;6.414;2023-06-14T05:40:05;20.40;77.10
3053;DHT22;1536;51.098;6.414;2023-06-14T05:42:33;20.40;77.00
3053;DHT22;1536;51.098;6.414;2023-06-14T05:45:00;20.50;77.20
3053;DHT22;1536;51.098;6.414;2023-06-14T05:47:26;20.60;77.00
3053;DHT22;1536;51.098;6.414;2023-06-14T05:49:54;20.70;77.20
3053;DHT22;1536;51.098;6.414;2023-06-14T05:52:20;20.70;77.20
3053;DHT22;1536;51.098;6.414;2023-06-14T05:54:49;20.80;77.50
3053;DHT22;1536;51.098;6.414;2023-06-14T05:57:15;20.80;77.50
3053;DHT22;1536;51.098;6.414;2023-06-14T05:59:42;20.90;77.30
3053;DHT22;1536;51.098;6.414;2023-06-14T06:02:09;21.00;77.20
3053;DHT22;1536;51.098;6.414;2023-06-14T06:04:36;21.00;77.10
3053;DHT22;1536;51.098;6.414;2023-06-14T06:07:02;21.10;76.90
3053;DHT22;1536;51.098;6.414;2023-06-14T06:09:30;21.20;76.20
3053;DHT22;1536;51.098;6.414;2023-06-14T06:11:58;21.20;76.00
3053;DHT22;1536;51.098;6.414;2023-06-14T06:14:25;21.30;76.20
3053;DHT22;1536;51.098;6.414;2023-06-14T06:16:53;21.30;76.40
3053;DHT22;1536;51.098;6.414;2023-06-14T06:19:20;21.40;76.50
3053;DHT22;1536;51.098;6.414;2023-06-14T06:21:46;21.50;76.50
3053;DHT22;1536;51.098;6.414;2023-06-14T06:24:13;21.50;76.00
3053;DHT22;1536;51.098;6.414;2023-06-14T06:26:40;21.60;75.90
3053;DHT22;1536;51.098;6.414;2023-06-14T06:29:08;21.60;75.80
3053;DHT22;1536;51.098;6.414;2023-06-14T06:31:35;21.70;75.70
3053;DHT22;1536;51.098;6.414;2023-06-14T06:34:02;21.80;75.40
3053;DHT22;1536;51.098;6.414;2023-06-14T06:36:29;21.90;75.10
3053;DHT22;1536;51.098;6.414;2023-06-14T06:38:55;22.00;75.00
3053;DHT22;1536;51.098;6.414;2023-06-14T06:41:22;22.00;74.60
3053;DHT22;1536;51.098;6.414;2023-06-14T06:43:49;22.10;74.20
3053;DHT22;1536;51.098;6.414;2023-06-14T06:46:17;22.20;73.90
3053;DHT22;1536;51.098;6.414;2023-06-14T06:48:44;22.30;73.40
3053;DHT22;1536;51.098;6.414;2023-06-14T06:51:11;22.40;72.90
3053;DHT22;1536;51.098;6.414;2023-06-14T06:53:38;22.50;72.20
3053;DHT22;1536;51.098;6.414;2023-06-14T06:56:05;22.50;71.80
3053;DHT22;1536;51.098;6.414;2023-06-14T06:58:32;22.60;70.70
3053;DHT22;1536;51.098;6.414;2023-06-14T07:00:59;22.70;70.10
3053;DHT22;1536;51.098;6.414;2023-06-14T07:03:27;22.80;70.00
3053;DHT22;1536;51.098;6.414;2023-06-14T07:05:54;22.80;70.30
3053;DHT22;1536;51.098;6.414;2023-06-14T07:08:21;22.90;70.60
3053;DHT22;1536;51.098;6.414;2023-06-14T07:10:48;23.00;70.20
3053;DHT22;1536;51.098;6.414;2023-06-14T07:13:14;23.00;69.20
3053;DHT22;1536;51.098;6.414;2023-06-14T07:15:41;23.10;68.40
3053;DHT22;1536;51.098;6.414;2023-06-14T07:18:08;23.20;67.60
3053;DHT22;1536;51.098;6.414;2023-06-14T07:20:36;23.30;68.00
3053;DHT22;1536;51.098;6.414;2023-06-14T07:23:04;23.30;68.70
3053;DHT22;1536;51.098;6.414;2023-06-14T07:25:31;23.40;69.10
3053;DHT22;1536;51.098;6.414;2023-06-14T07:27:58;23.40;68.70
3053;DHT22;1536;51.098;6.414;2023-06-14T07:30:24;23.50;68.30
3053;DHT22;1536;51.098;6.414;2023-06-14T07:32:52;23.50;68.00
3053;DHT22;1536;51.098;6.414;2023-06-14T07:35:20;23.50;69.00
3053;DHT22;1536;51.098;6.414;2023-06-14T07:37:48;23.70;69.60
3053;DHT22;1536;51.098;6.414;2023-06-14T07:40:15;23.70;70.60
3053;DHT22;1536;51.098;6.414;2023-06-14T07:42:42;23.80;70.50
3053;DHT22;1536;51.098;6.414;2023-06-14T07:45:12;23.80;68.90
3053;DHT22;1536;51.098;6.414;2023-06-14T07:47:38;23.90;67.80
3053;DHT22;1536;51.098;6.414;2023-06-14T07:50:06;23.90;67.60
3053;DHT22;1536;51.098;6.414;2023-06-14T07:52:33;24.10;67.60
3053;DHT22;1536;51.098;6.414;2023-06-14T07:55:01;24.10;67.00
3053;DHT22;1536;51.098;6.414;2023-06-14T07:57:27;24.20;67.20
3053;DHT22;1536;51.098;6.414;2023-06-14T07:59:54;24.30;67.00
3053;DHT22;1536;51.098;6.414;2023-06-14T08:02:21;24.40;66.30
3053;DHT22;1536;51.098;6.414;2023-06-14T08:04:48;24.50;65.90
3053;DHT22;1536;51.098;6.414;2023-06-14T08:07:15;24.50;65.80
3053;DHT22;1536;51.098;6.414;2023-06-14T08:09:41;24.60;64.70
3053;DHT22;1536;51.098;6.414;2023-06-14T08:12:10;24.80;63.40
3053;DHT22;1536;51.098;6.414;2023-06-14T08:14:38;24.80;63.00
3053;DHT22;1536;51.098;6.414;2023-06-14T08:17:05;24.90;62.30
3053;DHT22;1536;51.098;6.414;2023-06-14T08:19:32;25.00;62.40
3053;DHT22;1536;51.098;6.414;2023-06-14T08:21:59;25.10;62.70
3053;DHT22;1536;51.098;6.414;2023-06-14T08:24:25;25.20;61.50
3053;DHT22;1536;51.098;6.414;2023-06-14T08:26:53;25.30;61.30
3053;DHT22;1536;51.098;6.414;2023-06-14T08:29:21;25.40;61.40
3053;DHT22;1536;51.098;6.414;2023-06-14T08:31:48;25.50;61.60
3053;DHT22;1536;51.098;6.414;2023-06-14T08:34:15;25.60;58.60
3053;DHT22;1536;51.098;6.414;2023-06-14T08:36:42;25.70;59.30
3053;DHT22;1536;51.098;6.414;2023-06-14T08:39:10;25.70;59.00
3053;DHT22;1536;51.098;6.414;2023-06-14T08:41:37;25.90;59.10
3053;DHT22;1536;51.098;6.414;2023-06-14T08:44:04;25.90;59.40
3053;DHT22;1536;51.098;6.414;2023-06-14T08:46:34;26.00;58.70
3053;DHT22;1536;51.098;6.414;2023-06-14T08:49:01;26.10;57.10
3053;DHT22;1536;51.098;6.414;2023-06-14T08:51:31;26.20;55.60
3053;DHT22;1536;51.098;6.414;2023-06-14T08:53:59;26.30;55.30
3053;DHT22;1536;51.098;6.414;2023-06-14T08:56:27;26.40;54.60
3053;DHT22;1536;51.098;6.414;2023-06-14T08:58:55;26.50;53.60
3053;DHT22;1536;51.098;6.414;2023-06-14T09:01:23;26.60;53.20
3053;DHT22;1536;51.098;6.414;2023-06-14T09:03:51;26.60;52.60
3053;DHT22;1536;51.098;6.414;2023-06-14T09:06:21;26.70;51.10
3053;DHT22;1536;51.098;6.414;2023-06-14T09:08:49;26.80;51.80
3053;DHT22;1536;51.098;6.414;2023-06-14T09:11:18;26.80;50.50
3053;DHT22;1536;51.098;6.414;2023-06-14T09:13:45;26.80;50.70
3053;DHT22;1536;51.098;6.414;2023-06-14T09:16:12;26.90;49.10
3053;DHT22;1536;51.098;6.414;2023-06-14T09:18:41;26.90;49.30
3053;DHT22;1536;51.098;6.414;2023-06-14T09:21:11;27.00;49.20
3053;DHT22;1536;51.098;6.414;2023-06-14T09:23:40;27.10;49.80
3053;DHT22;1536;51.098;6.414;2023-06-14T09:26:07;27.20;49.50
3053;DHT22;1536;51.098;6.414;2023-06-14T09:28:34;27.20;48.60
3053;DHT22;1536;51.098;6.414;2023-06-14T09:31:01;27.20;48.70
3053;DHT22;1536;51.098;6.414;2023-06-14T09:33:28;27.30;48.50
3053;DHT22;1536;51.098;6.414;2023-06-14T09:35:55;27.30;48.60
3053;DHT22;1536;51.098;6.414;2023-06-14T09:38:24;27.30;48.40
3053;DHT22;1536;51.098;6.414;2023-06-14T09:40:52;27.30;48.20
3053;DHT22;1536;51.098;6.414;2023-06-14T09:43:19;27.30;47.70
3053;DHT22;1536;51.098;6.414;2023-06-14T09:45:48;27.40;47.70
3053;DHT22;1536;51.098;6.414;2023-06-14T09:48:15;27.40;47.30
3053;DHT22;1536;51.098;6.414;2023-06-14T09:50:45;27.40;47.50
3053;DHT22;1536;51.098;6.414;2023-06-14T09:53:12;27.40;47.90
3053;DHT22;1536;51.098;6.414;2023-06-14T09:55:41;27.50;48.30
3053;DHT22;1536;51.098;6.414;2023-06-14T09:58:09;27.50;49.10
3053;DHT22;1536;51.098;6.414;2023-06-14T10:00:39;27.60;49.90
3053;DHT22;1536;51.098;6.414;2023-06-14T10:03:10;27.60;49.70
3053;DHT22;1536;51.098;6.414;2023-06-14T10:05:40;27.60;49.90
3053;DHT22;1536;51.098;6.414;2023-06-14T10:08:08;27.60;50.00
3053;DHT22;1536;51.098;6.414;2023-06-14T10:10:36;27.70;49.90
3053;DHT22;1536;51.098;6.414;2023-06-14T10:13:06;27.80;50.40
3053;DHT22;1536;51.098;6.414;2023-06-14T10:15:38;27.80;49.80
3053;DHT22;1536;51.098;6.414;2023-06-14T10:18:17;27.90;49.60
3053;DHT22;1536;51.098;6.414;2023-06-14T10:20:52;27.90;49.20
3053;DHT22;1536;51.098;6.414;2023-06-14T10:23:23;27.90;49.40
3053;DHT22;1536;51.098;6.414;2023-06-14T10:25:54;27.90;49.30
3053;DHT22;1536;51.098;6.414;2023-06-14T10:28:24;27.70;48.90
3053;DHT22;1536;51.098;6.414;2023-06-14T10:31:05;27.70;49.70
3053;DHT22;1536;51.098;6.414;2023-06-14T10:33:33;27.70;49.50
3053;DHT22;1536;51.098;6.414;2023-06-14T10:36:25;27.80;50.00
3053;DHT22;1536;51.098;6.414;2023-06-14T10:39:01;27.70;49.80
3053;DHT22;1536;51.098;6.414;2023-06-14T10:41:28;27.80;50.40
3053;DHT22;1536;51.098;6.414;2023-06-14T10:44:40;27.80;50.50
3053;DHT22;1536;51.098;6.414;2023-06-14T10:47:09;27.80;49.50
3053;DHT22;1536;51.098;6.414;2023-06-14T10:49:38;27.80;49.50
3053;DHT22;1536;51.098;6.414;2023-06-14T10:52:08;27.70;49.00
3053;DHT22;1536;51.098;6.414;2023-06-14T10:54:55;27.70;48.80
3053;DHT22;1536;51.098;6.414;2023-06-14T10:57:22;27.80;48.80
3053;DHT22;1536;51.098;6.414;2023-06-14T10:59:50;27.80;48.50
3053;DHT22;1536;51.098;6.414;2023-06-14T11:02:35;27.80;48.80
3053;DHT22;1536;51.098;6.414;2023-06-14T11:05:08;27.90;48.50
3053;DHT22;1536;51.098;6.414;2023-06-14T11:07:48;28.00;48.80
3053;DHT22;1536;51.098;6.414;2023-06-14T11:10:29;28.00;48.50
3053;DHT22;1536;51.098;6.414;2023-06-14T11:12:59;28.00;48.90
3053;DHT22;1536;51.098;6.414;2023-06-14T11:15:29;28.00;48.60
3053;DHT22;1536;51.098;6.414;2023-06-14T11:17:57;28.00;48.80
3053;DHT22;1536;51.098;6.414;2023-06-14T11:20:25;28.00;48.90
3053;DHT22;1536;51.098;6.414;2023-06-14T11:22:52;28.00;48.90
3053;DHT22;1536;51.098;6.414;2023-06-14T11:25:20;28.10;48.80
3053;DHT22;1536;51.098;6.414;2023-06-14T11:27:49;28.10;48.50
3053;DHT22;1536;51.098;6.414;2023-06-14T11:30:16;28.00;49.10
3053;DHT22;1536;51.098;6.414;2023-06-14T11:32:48;28.10;49.10
3053;DHT22;1536;51.098;6.414;2023-06-14T11:35:16;28.10;48.70
3053;DHT22;1536;51.098;6.414;2023-06-14T11:37:43;28.10;48.60
3053;DHT22;1536;51.098;6.414;2023-06-14T11:40:11;28.20;49.20
3053;DHT22;1536;51.098;6.414;2023-06-14T11:42:39;28.20;49.00
3053;DHT22;1536;51.098;6.414;2023-06-14T11:45:08;28.30;49.10
3053;DHT22;1536;51.098;6.414;2023-06-14T11:47:35;28.40;49.30
3053;DHT22;1536;51.098;6.414;2023-06-14T11:50:05;28.50;49.00
3053;DHT22;1536;51.098;6.414;2023-06-14T11:52:34;28.50;47.90
3053;DHT22;1536;51.098;6.414;2023-06-14T11:55:01;28.50;47.60
3053;DHT22;1536;51.098;6.414;2023-06-14T11:57:30;28.50;47.40
3053;DHT22;1536;51.098;6.414;2023-06-14T11:59:57;28.50;47.10
3053;DHT22;1536;51.098;6.414;2023-06-14T12:02:24;28.50;47.40
3053;DHT22;1536;51.098;6.414;2023-06-14T12:04:53;28.60;47.20
3053;DHT22;1536;51.098;6.414;2023-06-14T12:07:22;28.60;47.50
3053;DHT22;1536;51.098;6.414;2023-06-14T12:10:04;28.60;47.60
3053;DHT22;1536;51.098;6.414;2023-06-14T12:12:35;28.70;47.50
3053;DHT22;1536;51.098;6.414;2023-06-14T12:15:03;28.70;47.00
3053;DHT22;1536;51.098;6.414;2023-06-14T12:17:32;28.70;47.40
3053;DHT22;1536;51.098;6.414;2023-06-14T12:19:59;28.70;47.90
3053;DHT22;1536;51.098;6.414;2023-06-14T12:22:35;28.70;48.10
3053;DHT22;1536;51.098;6.414;2023-06-14T12:25:02;28.70;48.20
3053;DHT22;1536;51.098;6.414;2023-06-14T12:27:29;28.70;48.30
3053;DHT22;1536;51.098;6.414;2023-06-14T12:30:00;28.80;48.60
3053;DHT22;1536;51.098;6.414;2023-06-14T12:32:27;28.80;48.60
3053;DHT22;1536;51.098;6.414;2023-06-14T12:34:54;28.80;48.40
3053;DHT22;1536;51.098;6.414;2023-06-14T12:37:21;28.80;48.80
3053;DHT22;1536;51.098;6.414;2023-06-14T12:39:49;28.80;48.80
3053;DHT22;1536;51.098;6.414;2023-06-14T12:42:16;28.80;49.00
3053;DHT22;1536;51.098;6.414;2023-06-14T12:44:43;28.80;48.80
3053;DHT22;1536;51.098;6.414;2023-06-14T12:47:09;28.80;48.80
3053;DHT22;1536;51.098;6.414;2023-06-14T12:49:39;28.90;49.10
3053;DHT22;1536;51.098;6.414;2023-06-14T12:52:07;28.90;49.50
3053;DHT22;1536;51.098;6.414;2023-06-14T12:54:34;28.90;49.50
3053;DHT22;1536;51.098;6.414;2023-06-14T12:57:03;28.90;49.60
3053;DHT22;1536;51.098;6.414;2023-06-14T12:59:30;29.00;49.50
3053;DHT22;1536;51.098;6.414;2023-06-14T13:02:00;29.00;50.00
3053;DHT22;1536;51.098;6.414;2023-06-14T13:04:36;29.10;49.70
3053;DHT22;1536;51.098;6.414;2023-06-14T13:07:03;29.20;49.10
3053;DHT22;1536;51.098;6.414;2023-06-14T13:09:30;29.20;49.20
3053;DHT22;1536;51.098;6.414;2023-06-14T13:11:56;29.20;49.20
3053;DHT22;1536;51.098;6.414;2023-06-14T13:14:24;29.20;49.60
3053;DHT22;1536;51.098;6.414;2023-06-14T13:16:51;29.20;49.60
3053;DHT22;1536;51.098;6.414;2023-06-14T13:19:18;29.30;50.00
3053;DHT22;1536;51.098;6.414;2023-06-14T13:21:45;29.30;49.30
3053;DHT22;1536;51.098;6.414;2023-06-14T13:24:11;29.20;49.30
3053;DHT22;1536;51.098;6.414;2023-06-14T13:26:38;29.20;49.90
3053;DHT22;1536;51.098;6.414;2023-06-14T13:29:05;29.30;50.20
3053;DHT22;1536;51.098;6.414;2023-06-14T13:31:33;29.30;49.60
3053;DHT22;1536;51.098;6.414;2023-06-14T13:34:00;29.30;49.20
3053;DHT22;1536;51.098;6.414;2023-06-14T13:36:27;29.20;48.80
3053;DHT22;1536;51.098;6.414;2023-06-14T13:38:55;29.30;49.20
3053;DHT22;1536;51.098;6.414;2023-06-14T13:41:25;29.30;49.00
3053;DHT22;1536;51.098;6.414;2023-06-14T13:43:57;29.30;49.20
3053;DHT22;1536;51.098;6.414;2023-06-14T13:46:24;29.30;49.00
3053;DHT22;1536;51.098;6.414;2023-06-14T13:48:52;29.30;48.60
3053;DHT22;1536;51.098;6.414;2023-06-14T13:51:19;29.30;48.90
3053;DHT22;1536;51.098;6.414;2023-06-14T13:53:46;29.30;49.00
3053;DHT22;1536;51.098;6.414;2023-06-14T13:56:13;29.20;49.20
3053;DHT22;1536;51.098;6.414;2023-06-14T13:58:40;29.20;48.70
3053;DHT22;1536;51.098;6.414;2023-06-14T14:01:07;29.20;49.10
3053;DHT22;1536;51.098;6.414;2023-06-14T14:03:34;29.10;48.80
3053;DHT22;1536;51.098;6.414;2023-06-14T14:06:03;29.20;49.00
3053;DHT22;1536;51.098;6.414;2023-06-14T14:11:13;29.30;49.30
3053;DHT22;1536;51.098;6.414;2023-06-14T14:13:41;29.30;48.50
3053;DHT22;1536;51.098;6.414;2023-06-14T14:16:09;29.30;48.60
3053;DHT22;1536;51.098;6.414;2023-06-14T14:18:36;29.40;48.90
3053;DHT22;1536;51.098;6.414;2023-06-14T14:21:04;29.60;49.10
3053;DHT22;1536;51.098;6.414;2023-06-14T14:23:31;29.60;49.10
3053;DHT22;1536;51.098;6.414;2023-06-14T14:25:57;29.70;49.00
3053;DHT22;1536;51.098;6.414;2023-06-14T14:28:26;29.80;49.00
3053;DHT22;1536;51.098;6.414;2023-06-14T14:30:53;29.90;49.10
3053;DHT22;1536;51.098;6.414;2023-06-14T14:33:20;30.00;49.30
3053;DHT22;1536;51.098;6.414;2023-06-14T14:35:47;30.10;49.00
3053;DHT22;1536;51.098;6.414;2023-06-14T14:38:15;30.10;48.80
3053;DHT22;1536;51.098;6.414;2023-06-14T14:40:42;30.10;48.50
3053;DHT22;1536;51.098;6.414;2023-06-14T14:43:09;30.10;48.60
3053;DHT22;1536;51.098;6.414;2023-06-14T14:45:36;30.10;48.60
3053;DHT22;1536;51.098;6.414;2023-06-14T14:48:03;30.20;49.50
3053;DHT22;1536;51.098;6.414;2023-06-14T14:50:30;30.20;49.00
3053;DHT22;1536;51.098;6.414;2023-06-14T14:52:57;30.30;49.00
3053;DHT22;1536;51.098;6.414;2023-06-14T14:55:25;30.40;48.90
3053;DHT22;1536;51.098;6.414;2023-06-14T14:57:52;30.40;48.90
3053;DHT22;1536;51.098;6.414;2023-06-14T15:00:18;30.30;48.70
3053;DHT22;1536;51.098;6.414;2023-06-14T15:02:45;30.30;48.40
3053;DHT22;1536;51.098;6.414;2023-06-14T15:05:12;30.30;48.10
3053;DHT22;1536;51.098;6.414;2023-06-14T15:07:39;30.30;48.00
3053;DHT22;1536;51.098;6.414;2023-06-14T15:10:07;30.30;48.40
3053;DHT22;1536;51.098;6.414;2023-06-14T15:12:35;30.40;48.60
3053;DHT22;1536;51.098;6.414;2023-06-14T15:15:03;30.30;48.70
3053;DHT22;1536;51.098;6.414;2023-06-14T15:17:30;30.20;48.90
3053;DHT22;1536;51.098;6.414;2023-06-14T15:19:56;30.10;49.10
3053;DHT22;1536;51.098;6.414;2023-06-14T15:22:23;30.10;49.20
3053;DHT22;1536;51.098;6.414;2023-06-14T15:24:50;30.10;49.10
3053;DHT22;1536;51.098;6.414;2023-06-14T15:27:17;30.20;49.00
3053;DHT22;1536;51.098;6.414;2023-06-14T15:29:46;30.20;49.00
3053;DHT22;1536;51.098;6.414;2023-06-14T15:32:12;30.30;48.60
3053;DHT22;1536;51.098;6.414;2023-06-14T15:34:39;30.30;48.50
3053;DHT22;1536;51.098;6.414;2023-06-14T15:37:06;30.40;48.50
3053;DHT22;1536;51.098;6.414;2023-06-14T15:39:33;30.40;48.80
3053;DHT22;1536;51.098;6.414;2023-06-14T15:41:59;30.40;48.50
3053;DHT22;1536;51.098;6.414;2023-06-14T15:44:26;30.40;48.30
3053;DHT22;1536;51.098;6.414;2023-06-14T15:46:54;30.40;47.80
3053;DHT22;1536;51.098;6.414;2023-06-14T15:49:21;30.30;47.60
3053;DHT22;1536;51.098;6.414;2023-06-14T15:51:48;30.10;48.00
3053;DHT22;1536;51.098;6.414;2023-06-14T15:54:15;29.80;47.80
3053;DHT22;1536;51.098;6.414;2023-06-14T15:56:41;29.70;48.00
3053;DHT22;1536;51.098;6.414;2023-06-14T15:59:08;29.70;48.30
3053;DHT22;1536;51.098;6.414;2023-06-14T16:01:35;29.80;48.80
3053;DHT22;1536;51.098;6.414;2023-06-14T16:04:03;29.80;48.70
3053;DHT22;1536;51.098;6.414;2023-06-14T16:06:30;29.80;48.60
3053;DHT22;1536;51.098;6.414;2023-06-14T16:08:58;29.80;48.50
3053;DHT22;1536;51.098;6.414;2023-06-14T16:11:25;29.80;48.40